sensor_id;sensor_type;location;lat;lon;timestamp;pressure;altitude;pressure_sealevel;temperature;humidity
25156;BME280;71253;51.496;7.606;2023-12-29T00:02:06;99511.75;;;8.91;80.96
25156;BME280;71253;51.496;7.606;2023-12-29T00:07:08;99496.25;;;9.02;80.09
25156;BME280;71253;51.496;7.606;2023-12-29T00:12:09;99504.00;;;8.99;80.62
25156;BME280;71253;51.496;7.606;2023-12-29T00:17:11;99481.66;;;8.94;80.96
25156;BME280;71253;51.496;7.606;2023-12-29T00:22:12;99496.28;;;8.89;81.50
25156;BME280;71253;51.496;7.606;2023-12-29T00:27:14;99490.28;;;8.87;81.90
25156;BME280;71253;51.496;7.606;2023-12-29T00:32:15;99497.97;;;8.96;81.57
25156;BME280;71253;51.496;7.606;2023-12-29T00:37:17;99480.78;;;8.99;81.47
25156;BME280;71253;51.496;7.606;2023-12-29T00:42:18;99479.03;;;9.07;80.84
25156;BME280;71253;51.496;7.606;2023-12-29T00:47:20;99481.59;;;9.13;80.29
25156;BME280;71253;51.496;7.606;2023-12-29T00:52:21;99476.44;;;9.07;80.95
25156;BME280;71253;51.496;7.606;2023-12-29T00:57:23;99483.34;;;9.05;81.48
25156;BME280;71253;51.496;7.606;2023-12-29T01:02:25;99465.28;;;9.00;81.32
25156;BME280;71253;51.496;7.606;2023-12-29T01:07:26;99469.59;;;9.00;81.78
25156;BME280;71253;51.496;7.606;2023-12-29T01:12:28;99472.19;;;8.90;83.03
25156;BME280;71253;51.496;7.606;2023-12-29T01:17:29;99450.69;;;8.96;82.38
25156;BME280;71253;51.496;7.606;2023-12-29T01:22:31;99445.47;;;9.07;81.29
25156;BME280;71253;51.496;7.606;2023-12-29T01:27:33;99448.06;;;9.02;82.38
25156;BME280;71253;51.496;7.606;2023-12-29T01:32:35;99442.09;;;8.99;82.21
25156;BME280;71253;51.496;7.606;2023-12-29T01:37:37;99428.34;;;8.98;82.52
25156;BME280;71253;51.496;7.606;2023-12-29T01:42:39;99427.41;;;9.07;81.70
25156;BME280;71253;51.496;7.606;2023-12-29T01:47:41;99432.59;;;9.07;81.78
25156;BME280;71253;51.496;7.606;2023-12-29T01:52:43;99430.03;;;9.04;82.40
25156;BME280;71253;51.496;7.606;2023-12-29T01:57:46;99424.84;;;9.07;81.93
25156;BME280;71253;51.496;7.606;2023-12-29T02:02:48;99437.78;;;9.04;82.20
25156;BME280;71253;51.496;7.606;2023-12-29T02:07:51;99427.47;;;8.91;85.12
25156;BME280;71253;51.496;7.606;2023-12-29T02:12:53;99420.63;;;8.83;86.80
25156;BME280;71253;51.496;7.606;2023-12-29T02:17:59;99429.25;;;8.76;87.57
25156;BME280;71253;51.496;7.606;2023-12-29T02:23:03;99419.81;;;8.65;89.39
25156;BME280;71253;51.496;7.606;2023-12-29T02:28:25;99421.53;;;8.62;89.44
25156;BME280;71253;51.496;7.606;2023-12-29T02:33:28;99425.84;;;8.48;92.29
25156;BME280;71253;51.496;7.606;2023-12-29T02:38:31;99418.97;;;8.25;95.85
25156;BME280;71253;51.496;7.606;2023-12-29T02:43:34;99432.69;;;7.98;100.00
25156;BME280;71253;51.496;7.606;2023-12-29T02:48:35;99421.53;;;7.91;100.00
25156;BME280;71253;51.496;7.606;2023-12-29T02:53:37;99421.53;;;7.73;100.00
25156;BME280;71253;51.496;7.606;2023-12-29T02:58:38;99423.22;;;7.68;100.00
25156;BME280;71253;51.496;7.606;2023-12-29T03:03:40;99451.53;;;7.62;100.00
25156;BME280;71253;51.496;7.606;2023-12-29T03:08:41;99449.75;;;7.44;100.00
25156;BME280;71253;51.496;7.606;2023-12-29T03:13:43;99431.75;;;7.43;100.00
25156;BME280;71253;51.496;7.606;2023-12-29T03:18:45;99422.31;;;7.42;100.00
25156;BME280;71253;51.496;7.606;2023-12-29T03:23:47;99405.13;;;7.39;100.00
25156;BME280;71253;51.496;7.606;2023-12-29T03:28:50;99424.03;;;7.43;100.00
25156;BME280;71253;51.496;7.606;2023-12-29T03:33:52;99409.44;;;7.42;100.00
25156;BME280;71253;51.496;7.606;2023-12-29T03:38:54;99408.59;;;7.49;100.00
25156;BME280;71253;51.496;7.606;2023-12-29T03:43:56;99392.31;;;7.59;100.00
25156;BME280;71253;51.496;7.606;2023-12-29T03:48:57;99400.06;;;7.76;100.00
25156;BME280;71253;51.496;7.606;2023-12-29T03:53:59;99382.91;;;7.84;100.00
25156;BME280;71253;51.496;7.606;2023-12-29T03:59:00;99388.03;;;7.98;100.00
25156;BME280;71253;51.496;7.606;2023-12-29T04:04:02;99384.59;;;7.99;100.00
25156;BME280;71253;51.496;7.606;2023-12-29T04:09:03;99372.59;;;8.14;100.00
25156;BME280;71253;51.496;7.606;2023-12-29T04:14:06;99382.91;;;8.16;100.00
25156;BME280;71253;51.496;7.606;2023-12-29T04:19:07;99382.03;;;8.32;100.00
25156;BME280;71253;51.496;7.606;2023-12-29T04:24:09;99385.47;;;8.34;100.00
25156;BME280;71253;51.496;7.606;2023-12-29T04:29:10;99377.72;;;8.33;100.00
25156;BME280;71253;51.496;7.606;2023-12-29T04:34:12;99370.81;;;8.53;99.13
25156;BME280;71253;51.496;7.606;2023-12-29T04:39:13;99370.00;;;8.48;99.04
25156;BME280;71253;51.496;7.606;2023-12-29T04:44:15;99375.19;;;8.39;100.00
25156;BME280;71253;51.496;7.606;2023-12-29T04:49:17;99373.44;;;8.46;98.92
25156;BME280;71253;51.496;7.606;2023-12-29T04:54:18;99377.72;;;8.53;97.61
25156;BME280;71253;51.496;7.606;2023-12-29T04:59:20;99386.31;;;8.47;98.56
25156;BME280;71253;51.496;7.606;2023-12-29T05:04:21;99393.19;;;8.51;99.18
25156;BME280;71253;51.496;7.606;2023-12-29T05:09:23;99386.34;;;8.41;100.00
25156;BME280;71253;51.496;7.606;2023-12-29T05:14:24;99399.22;;;8.29;100.00
25156;BME280;71253;51.496;7.606;2023-12-29T05:19:26;99387.19;;;8.18;100.00
25156;BME280;71253;51.496;7.606;2023-12-29T05:24:27;99396.63;;;8.09;100.00
25156;BME280;71253;51.496;7.606;2023-12-29T05:29:29;99395.78;;;7.96;100.00
25156;BME280;71253;51.496;7.606;2023-12-29T05:34:30;99412.09;;;8.13;100.00
25156;BME280;71253;51.496;7.606;2023-12-29T05:39:32;99403.50;;;8.21;100.00
25156;BME280;71253;51.496;7.606;2023-12-29T05:44:36;99404.38;;;8.24;99.83
25156;BME280;71253;51.496;7.606;2023-12-29T05:49:37;99393.22;;;8.37;97.41
25156;BME280;71253;51.496;7.606;2023-12-29T05:54:39;99391.47;;;8.52;95.35
25156;BME280;71253;51.496;7.606;2023-12-29T05:59:41;99399.22;;;8.49;95.46
25156;BME280;71253;51.496;7.606;2023-12-29T06:04:42;99393.19;;;8.50;95.02
25156;BME280;71253;51.496;7.606;2023-12-29T06:09:44;99398.38;;;8.43;95.59
25156;BME280;71253;51.496;7.606;2023-12-29T06:14:45;99401.75;;;8.58;93.73
25156;BME280;71253;51.496;7.606;2023-12-29T06:19:47;99402.63;;;8.58;92.95
25156;BME280;71253;51.496;7.606;2023-12-29T06:24:49;99409.50;;;8.61;91.87
25156;BME280;71253;51.496;7.606;2023-12-29T06:29:50;99413.81;;;8.54;92.53
25156;BME280;71253;51.496;7.606;2023-12-29T06:34:52;99418.97;;;8.47;92.55
25156;BME280;71253;51.496;7.606;2023-12-29T06:39:53;99419.81;;;8.53;91.62
25156;BME280;71253;51.496;7.606;2023-12-29T06:44:55;99412.97;;;8.51;91.86
25156;BME280;71253;51.496;7.606;2023-12-29T06:49:56;99410.38;;;8.55;91.56
25156;BME280;71253;51.496;7.606;2023-12-29T06:54:58;99407.78;;;8.61;90.77
25156;BME280;71253;51.496;7.606;2023-12-29T07:00:00;99398.34;;;8.51;92.06
25156;BME280;71253;51.496;7.606;2023-12-29T07:05:01;99409.53;;;8.50;91.85
25156;BME280;71253;51.496;7.606;2023-12-29T07:10:03;99411.19;;;8.68;90.13
25156;BME280;71253;51.496;7.606;2023-12-29T07:15:06;99414.63;;;8.68;90.04
25156;BME280;71253;51.496;7.606;2023-12-29T07:20:07;99412.91;;;8.75;89.45
25156;BME280;71253;51.496;7.606;2023-12-29T07:25:09;99412.94;;;8.63;92.63
25156;BME280;71253;51.496;7.606;2023-12-29T07:30:11;99412.06;;;8.68;91.72
25156;BME280;71253;51.496;7.606;2023-12-29T07:35:13;99401.78;;;8.56;94.46
25156;BME280;71253;51.496;7.606;2023-12-29T07:40:15;99420.69;;;8.31;99.36
25156;BME280;71253;51.496;7.606;2023-12-29T07:45:17;99419.81;;;7.98;100.00
25156;BME280;71253;51.496;7.606;2023-12-29T07:50:18;99413.78;;;7.82;100.00
25156;BME280;71253;51.496;7.606;2023-12-29T07:55:20;99412.06;;;7.75;100.00
25156;BME280;71253;51.496;7.606;2023-12-29T08:00:22;99410.34;;;7.62;100.00
25156;BME280;71253;51.496;7.606;2023-12-29T08:05:23;99405.19;;;7.53;100.00
25156;BME280;71253;51.496;7.606;2023-12-29T08:10:25;99387.16;;;7.47;100.00
25156;BME280;71253;51.496;7.606;2023-12-29T08:15:27;99390.59;;;7.50;100.00
25156;BME280;71253;51.496;7.606;2023-12-29T08:20:28;99394.03;;;7.51;100.00
25156;BME280;71253;51.496;7.606;2023-12-29T08:25:30;99412.03;;;7.60;100.00
25156;BME280;71253;51.496;7.606;2023-12-29T08:30:34;99421.50;;;7.64;100.00
25156;BME280;71253;51.496;7.606;2023-12-29T08:35:36;99425.78;;;7.59;100.00
25156;BME280;71253;51.496;7.606;2023-12-29T08:40:37;99428.38;;;7.62;100.00
25156;BME280;71253;51.496;7.606;2023-12-29T08:45:39;99427.53;;;7.61;100.00
25156;BME280;71253;51.496;7.606;2023-12-29T08:50:41;99431.78;;;7.59;100.00
25156;BME280;71253;51.496;7.606;2023-12-29T08:55:42;99437.81;;;7.64;100.00
25156;BME280;71253;51.496;7.606;2023-12-29T09:00:44;99427.53;;;7.74;100.00
25156;BME280;71253;51.496;7.606;2023-12-29T09:05:45;99416.38;;;7.73;100.00
25156;BME280;71253;51.496;7.606;2023-12-29T09:10:47;99423.25;;;7.85;100.00
25156;BME280;71253;51.496;7.606;2023-12-29T09:15:48;99414.69;;;7.83;100.00
25156;BME280;71253;51.496;7.606;2023-12-29T09:20:50;99407.78;;;7.86;100.00
25156;BME280;71253;51.496;7.606;2023-12-29T09:25:52;99418.94;;;7.93;100.00
25156;BME280;71253;51.496;7.606;2023-12-29T09:30:53;99419.81;;;7.94;100.00
25156;BME280;71253;51.496;7.606;2023-12-29T09:35:55;99415.53;;;7.93;100.00
25156;BME280;71253;51.496;7.606;2023-12-29T09:41:04;99412.09;;;7.95;100.00
25156;BME280;71253;51.496;7.606;2023-12-29T09:46:07;99400.94;;;8.16;100.00
25156;BME280;71253;51.496;7.606;2023-12-29T09:51:10;99413.81;;;8.22;100.00
25156;BME280;71253;51.496;7.606;2023-12-29T09:56:12;99427.56;;;8.32;100.00
25156;BME280;71253;51.496;7.606;2023-12-29T10:01:14;99437.88;;;8.42;100.00
25156;BME280;71253;51.496;7.606;2023-12-29T10:06:24;99448.19;;;8.46;100.00
25156;BME280;71253;51.496;7.606;2023-12-29T10:11:26;99461.09;;;8.39;100.00
25156;BME280;71253;51.496;7.606;2023-12-29T10:16:28;99456.75;;;8.35;100.00
25156;BME280;71253;51.496;7.606;2023-12-29T10:21:40;99451.63;;;8.29;100.00
25156;BME280;71253;51.496;7.606;2023-12-29T10:26:43;99414.66;;;8.24;100.00
25156;BME280;71253;51.496;7.606;2023-12-29T10:31:46;99426.69;;;8.24;100.00
25156;BME280;71253;51.496;7.606;2023-12-29T10:36:50;99431.84;;;8.28;100.00
25156;BME280;71253;51.496;7.606;2023-12-29T10:42:05;99420.69;;;8.18;100.00
25156;BME280;71253;51.496;7.606;2023-12-29T10:47:11;99394.94;;;8.06;100.00
25156;BME280;71253;51.496;7.606;2023-12-29T10:52:14;99405.22;;;8.02;100.00
25156;BME280;71253;51.496;7.606;2023-12-29T10:57:16;99364.88;;;8.07;100.00
25156;BME280;71253;51.496;7.606;2023-12-29T11:02:18;99390.63;;;8.13;100.00
25156;BME280;71253;51.496;7.606;2023-12-29T11:07:52;99405.22;;;8.23;100.00
25156;BME280;71253;51.496;7.606;2023-12-29T11:12:55;99408.66;;;8.34;100.00
25156;BME280;71253;51.496;7.606;2023-12-29T11:17:57;99394.91;;;8.55;100.00
25156;BME280;71253;51.496;7.606;2023-12-29T11:22:59;99400.91;;;8.71;100.00
25156;BME280;71253;51.496;7.606;2023-12-29T11:28:01;99405.97;;;8.89;100.00
25156;BME280;71253;51.496;7.606;2023-12-29T11:33:18;99415.44;;;8.95;100.00
25156;BME280;71253;51.496;7.606;2023-12-29T11:39:02;99424.94;;;8.73;100.00
25156;BME280;71253;51.496;7.606;2023-12-29T11:44:06;99407.75;;;8.78;100.00
25156;BME280;71253;51.496;7.606;2023-12-29T11:49:08;99414.59;;;8.85;100.00
25156;BME280;71253;51.496;7.606;2023-12-29T11:54:21;99405.97;;;8.94;100.00
25156;BME280;71253;51.496;7.606;2023-12-29T11:59:24;99389.59;;;9.06;100.00
25156;BME280;71253;51.496;7.606;2023-12-29T12:04:42;99392.13;;;9.12;100.00
25156;BME280;71253;51.496;7.606;2023-12-29T12:09:44;99384.38;;;9.19;100.00
25156;BME280;71253;51.496;7.606;2023-12-29T12:14:49;99396.41;;;9.17;100.00
25156;BME280;71253;51.496;7.606;2023-12-29T12:19:53;99381.00;;;9.01;100.00
25156;BME280;71253;51.496;7.606;2023-12-29T12:24:59;99380.97;;;9.02;100.00
25156;BME280;71253;51.496;7.606;2023-12-29T12:30:02;99369.75;;;9.12;100.00
25156;BME280;71253;51.496;7.606;2023-12-29T12:35:03;99373.19;;;9.19;100.00
25156;BME280;71253;51.496;7.606;2023-12-29T12:40:26;99376.66;;;9.15;100.00
25156;BME280;71253;51.496;7.606;2023-12-29T12:45:28;99374.91;;;9.12;100.00
25156;BME280;71253;51.496;7.606;2023-12-29T12:50:30;99377.56;;;9.02;100.00
25156;BME280;71253;51.496;7.606;2023-12-29T12:55:34;99383.63;;;8.85;100.00
25156;BME280;71253;51.496;7.606;2023-12-29T13:00:36;99351.88;;;8.73;100.00
25156;BME280;71253;51.496;7.606;2023-12-29T13:05:38;99381.16;;;8.47;100.00
25156;BME280;71253;51.496;7.606;2023-12-29T13:10:41;99385.44;;;8.31;100.00
25156;BME280;71253;51.496;7.606;2023-12-29T13:20:48;99376.88;;;8.09;100.00
25156;BME280;71253;51.496;7.606;2023-12-29T13:26:04;99388.06;;;7.99;100.00
25156;BME280;71253;51.496;7.606;2023-12-29T13:31:11;99388.91;;;7.94;100.00
25156;BME280;71253;51.496;7.606;2023-12-29T13:36:34;99380.31;;;8.07;100.00
25156;BME280;71253;51.496;7.606;2023-12-29T13:41:38;99374.31;;;8.08;100.00
25156;BME280;71253;51.496;7.606;2023-12-29T13:46:40;99364.00;;;8.11;100.00
25156;BME280;71253;51.496;7.606;2023-12-29T13:51:42;99361.41;;;8.14;100.00
25156;BME280;71253;51.496;7.606;2023-12-29T13:56:53;99364.88;;;8.13;100.00
25156;BME280;71253;51.496;7.606;2023-12-29T14:01:54;99360.56;;;8.12;100.00
25156;BME280;71253;51.496;7.606;2023-12-29T14:07:01;99357.13;;;8.14;100.00
25156;BME280;71253;51.496;7.606;2023-12-29T14:12:03;99351.94;;;8.21;100.00
25156;BME280;71253;51.496;7.606;2023-12-29T14:17:07;99340.78;;;8.35;100.00
25156;BME280;71253;51.496;7.606;2023-12-29T14:22:08;99354.53;;;8.34;100.00
25156;BME280;71253;51.496;7.606;2023-12-29T14:27:11;99330.44;;;8.48;100.00
25156;BME280;71253;51.496;7.606;2023-12-29T14:32:13;99335.59;;;8.52;100.00
25156;BME280;71253;51.496;7.606;2023-12-29T14:37:15;99344.19;;;8.56;100.00
25156;BME280;71253;51.496;7.606;2023-12-29T14:42:16;99350.19;;;8.70;100.00
25156;BME280;71253;51.496;7.606;2023-12-29T14:47:18;99339.00;;;8.66;100.00
25156;BME280;71253;51.496;7.606;2023-12-29T14:52:20;99349.31;;;8.68;100.00
25156;BME280;71253;51.496;7.606;2023-12-29T14:57:21;99329.53;;;8.64;100.00
25156;BME280;71253;51.496;7.606;2023-12-29T15:02:23;99344.16;;;8.68;100.00
25156;BME280;71253;51.496;7.606;2023-12-29T15:07:24;99330.41;;;8.66;100.00
25156;BME280;71253;51.496;7.606;2023-12-29T15:12:26;99317.53;;;8.64;100.00
25156;BME280;71253;51.496;7.606;2023-12-29T15:17:27;99330.41;;;8.58;100.00
25156;BME280;71253;51.496;7.606;2023-12-29T15:22:29;99338.19;;;8.54;100.00
25156;BME280;71253;51.496;7.606;2023-12-29T15:27:30;99339.91;;;8.47;100.00
25156;BME280;71253;51.496;7.606;2023-12-29T15:32:32;99337.38;;;8.39;100.00
25156;BME280;71253;51.496;7.606;2023-12-29T15:37:34;99340.78;;;8.29;100.00
25156;BME280;71253;51.496;7.606;2023-12-29T15:42:35;99342.53;;;8.06;100.00
25156;BME280;71253;51.496;7.606;2023-12-29T15:47:37;99342.53;;;7.98;100.00
25156;BME280;71253;51.496;7.606;2023-12-29T15:52:38;99326.22;;;7.91;100.00
25156;BME280;71253;51.496;7.606;2023-12-29T15:57:40;99332.25;;;7.89;100.00
25156;BME280;71253;51.496;7.606;2023-12-29T16:02:42;99317.66;;;7.82;100.00
25156;BME280;71253;51.496;7.606;2023-12-29T16:07:43;99297.91;;;7.72;100.00
25156;BME280;71253;51.496;7.606;2023-12-29T16:12:45;99292.75;;;7.61;100.00
25156;BME280;71253;51.496;7.606;2023-12-29T16:17:47;99297.91;;;7.58;100.00
25156;BME280;71253;51.496;7.606;2023-12-29T16:22:48;99297.91;;;7.65;100.00
25156;BME280;71253;51.496;7.606;2023-12-29T16:27:50;99297.91;;;7.76;100.00
25156;BME280;71253;51.496;7.606;2023-12-29T16:32:53;99278.16;;;7.90;100.00
25156;BME280;71253;51.496;7.606;2023-12-29T16:37:54;99287.59;;;8.01;100.00
25156;BME280;71253;51.496;7.606;2023-12-29T16:42:56;99285.84;;;8.09;100.00
25156;BME280;71253;51.496;7.606;2023-12-29T16:47:57;99278.13;;;8.07;100.00
25156;BME280;71253;51.496;7.606;2023-12-29T16:52:59;99290.16;;;8.11;100.00
25156;BME280;71253;51.496;7.606;2023-12-29T16:58:00;99296.19;;;8.01;100.00
25156;BME280;71253;51.496;7.606;2023-12-29T17:03:02;99270.41;;;8.03;100.00
25156;BME280;71253;51.496;7.606;2023-12-29T17:08:04;99273.00;;;7.92;100.00
25156;BME280;71253;51.496;7.606;2023-12-29T17:13:06;99267.00;;;7.82;100.00
25156;BME280;71253;51.496;7.606;2023-12-29T17:18:08;99266.13;;;7.86;100.00
25156;BME280;71253;51.496;7.606;2023-12-29T17:23:09;99268.72;;;7.94;100.00
25156;BME280;71253;51.496;7.606;2023-12-29T17:28:11;99266.97;;;8.01;100.00
25156;BME280;71253;51.496;7.606;2023-12-29T17:33:12;99272.97;;;8.03;100.00
25156;BME280;71253;51.496;7.606;2023-12-29T17:38:14;99273.00;;;8.00;100.00
25156;BME280;71253;51.496;7.606;2023-12-29T17:43:15;99276.41;;;8.02;100.00
25156;BME280;71253;51.496;7.606;2023-12-29T17:48:17;99279.84;;;8.02;100.00
25156;BME280;71253;51.496;7.606;2023-12-29T17:53:19;99282.41;;;8.10;100.00
25156;BME280;71253;51.496;7.606;2023-12-29T17:58:20;99277.25;;;8.10;100.00
25156;BME280;71253;51.496;7.606;2023-12-29T18:03:22;99276.41;;;8.02;100.00
25156;BME280;71253;51.496;7.606;2023-12-29T18:08:23;99275.53;;;8.15;100.00
25156;BME280;71253;51.496;7.606;2023-12-29T18:13:25;99274.63;;;8.33;100.00
25156;BME280;71253;51.496;7.606;2023-12-29T18:18:26;99285.81;;;8.33;100.00
25156;BME280;71253;51.496;7.606;2023-12-29T18:23:28;99273.75;;;8.41;100.00
25156;BME280;71253;51.496;7.606;2023-12-29T18:28:30;99279.81;;;8.37;100.00
25156;BME280;71253;51.496;7.606;2023-12-29T18:33:31;99286.69;;;8.18;100.00
25156;BME280;71253;51.496;7.606;2023-12-29T18:38:33;99283.25;;;8.24;100.00
25156;BME280;71253;51.496;7.606;2023-12-29T18:43:35;99285.81;;;8.24;100.00
25156;BME280;71253;51.496;7.606;2023-12-29T18:48:38;99283.22;;;8.33;100.00
25156;BME280;71253;51.496;7.606;2023-12-29T18:53:39;99289.19;;;8.52;100.00
25156;BME280;71253;51.496;7.606;2023-12-29T18:58:41;99295.22;;;8.56;100.00
25156;BME280;71253;51.496;7.606;2023-12-29T19:03:43;99290.88;;;8.61;100.00
25156;BME280;71253;51.496;7.606;2023-12-29T19:08:45;99300.28;;;8.74;100.00
25156;BME280;71253;51.496;7.606;2023-12-29T19:13:46;99282.34;;;8.48;100.00
25156;BME280;71253;51.496;7.606;2023-12-29T19:18:48;99300.41;;;8.43;100.00
25156;BME280;71253;51.496;7.606;2023-12-29T19:23:50;99313.25;;;8.51;100.00
25156;BME280;71253;51.496;7.606;2023-12-29T19:28:52;99308.06;;;8.65;100.00
25156;BME280;71253;51.496;7.606;2023-12-29T19:33:53;99306.34;;;8.58;100.00
25156;BME280;71253;51.496;7.606;2023-12-29T19:38:55;99320.16;;;8.25;100.00
25156;BME280;71253;51.496;7.606;2023-12-29T19:43:57;99321.94;;;8.06;100.00
25156;BME280;71253;51.496;7.606;2023-12-29T19:48:58;99332.25;;;7.86;100.00
25156;BME280;71253;51.496;7.606;2023-12-29T19:54:00;99319.34;;;7.87;100.00
25156;BME280;71253;51.496;7.606;2023-12-29T19:59:04;99312.50;;;7.91;100.00
25156;BME280;71253;51.496;7.606;2023-12-29T20:04:06;99321.94;;;7.94;100.00
25156;BME280;71253;51.496;7.606;2023-12-29T20:09:07;99327.91;;;8.09;100.00
25156;BME280;71253;51.496;7.606;2023-12-29T20:14:09;99309.88;;;8.20;100.00
25156;BME280;71253;51.496;7.606;2023-12-29T20:19:11;99382.88;;;8.21;100.00
25156;BME280;71253;51.496;7.606;2023-12-29T20:24:13;99409.34;;;7.16;100.00
25156;BME280;71253;51.496;7.606;2023-12-29T20:29:14;99421.09;;;6.62;100.00
25156;BME280;71253;51.496;7.606;2023-12-29T20:34:16;99434.72;;;6.50;100.00
25156;BME280;71253;51.496;7.606;2023-12-29T20:39:18;99441.53;;;6.45;100.00
25156;BME280;71253;51.496;7.606;2023-12-29T20:44:19;99438.94;;;6.39;100.00
25156;BME280;71253;51.496;7.606;2023-12-29T20:49:21;99421.75;;;6.33;100.00
25156;BME280;71253;51.496;7.606;2023-12-29T20:54:22;99420.81;;;6.23;100.00
25156;BME280;71253;51.496;7.606;2023-12-29T20:59:24;99413.13;;;6.22;100.00
25156;BME280;71253;51.496;7.606;2023-12-29T21:04:25;99428.53;;;6.22;100.00
25156;BME280;71253;51.496;7.606;2023-12-29T21:09:27;99404.56;;;6.20;100.00
25156;BME280;71253;51.496;7.606;2023-12-29T21:14:31;99395.09;;;6.19;100.00
25156;BME280;71253;51.496;7.606;2023-12-29T21:19:33;99402.81;;;6.19;100.00
25156;BME280;71253;51.496;7.606;2023-12-29T21:24:35;99397.63;;;6.14;100.00
25156;BME280;71253;51.496;7.606;2023-12-29T21:29:36;99393.25;;;6.02;100.00
25156;BME280;71253;51.496;7.606;2023-12-29T21:34:38;99402.03;;;6.27;100.00
25156;BME280;71253;51.496;7.606;2023-12-29T21:39:40;99392.94;;;6.86;100.00
25156;BME280;71253;51.496;7.606;2023-12-29T21:44:43;99394.78;;;7.19;100.00
25156;BME280;71253;51.496;7.606;2023-12-29T21:49:45;99389.72;;;7.51;100.00
25156;BME280;71253;51.496;7.606;2023-12-29T21:54:46;99390.59;;;7.53;100.00
25156;BME280;71253;51.496;7.606;2023-12-29T21:59:48;99393.19;;;7.64;100.00
25156;BME280;71253;51.496;7.606;2023-12-29T22:04:49;99399.22;;;7.72;100.00
25156;BME280;71253;51.496;7.606;2023-12-29T22:09:51;99408.63;;;7.59;100.00
25156;BME280;71253;51.496;7.606;2023-12-29T22:14:53;99408.66;;;7.67;100.00
25156;BME280;71253;51.496;7.606;2023-12-29T22:19:54;99406.94;;;7.75;100.00
25156;BME280;71253;51.496;7.606;2023-12-29T22:24:56;99401.78;;;7.77;100.00
25156;BME280;71253;51.496;7.606;2023-12-29T22:29:57;99400.91;;;7.87;100.00
25156;BME280;71253;51.496;7.606;2023-12-29T22:34:59;99405.22;;;7.89;100.00
25156;BME280;71253;51.496;7.606;2023-12-29T22:40:00;99411.25;;;7.88;100.00
25156;BME280;71253;51.496;7.606;2023-12-29T22:45:02;99418.13;;;7.89;100.00
25156;BME280;71253;51.496;7.606;2023-12-29T22:50:05;99421.53;;;7.90;99.71
25156;BME280;71253;51.496;7.606;2023-12-29T22:55:06;99436.13;;;7.80;100.00
25156;BME280;71253;51.496;7.606;2023-12-29T23:00:08;99441.28;;;7.80;100.00
25156;BME280;71253;51.496;7.606;2023-12-29T23:05:10;99453.28;;;7.87;98.79
25156;BME280;71253;51.496;7.606;2023-12-29T23:10:11;99461.88;;;7.86;99.53
25156;BME280;71253;51.496;7.606;2023-12-29T23:15:13;99455.03;;;7.84;98.25
25156;BME280;71253;51.496;7.606;2023-12-29T23:20:15;99456.72;;;7.74;98.59
25156;BME280;71253;51.496;7.606;2023-12-29T23:25:16;99462.75;;;7.84;97.82
25156;BME280;71253;51.496;7.606;2023-12-29T23:30:18;99478.22;;;7.88;96.94
25156;BME280;71253;51.496;7.606;2023-12-29T23:35:19;99473.91;;;7.72;99.91
25156;BME280;71253;51.496;7.606;2023-12-29T23:40:23;99456.69;;;7.70;99.65
25156;BME280;71253;51.496;7.606;2023-12-29T23:45:25;99458.41;;;7.71;98.52
25156;BME280;71253;51.496;7.606;2023-12-29T23:50:26;99459.28;;;7.70;98.54
25156;BME280;71253;51.496;7.606;2023-12-29T23:55:28;99455.84;;;7.68;98.89
